sensor_id;sensor_type;location;lat;lon;timestamp;temperature;humidity
18291;DHT22;9271;48.590;8.866;2023-06-22T00:02:17;23.20;99.90
18291;DHT22;9271;48.590;8.866;2023-06-22T00:04:44;23.20;99.90
18291;DHT22;9271;48.590;8.866;2023-06-22T00:07:11;23.20;99.90
18291;DHT22;9271;48.590;8.866;2023-06-22T00:09:38;23.20;99.90
18291;DHT22;9271;48.590;8.866;2023-06-22T00:12:05;23.10;99.90
18291;DHT22;9271;48.590;8.866;2023-06-22T00:14:32;23.10;99.90
18291;DHT22;9271;48.590;8.866;2023-06-22T00:16:59;23.00;99.90
18291;DHT22;9271;48.590;8.866;2023-06-22T00:19:27;23.00;99.90
18291;DHT22;9271;48.590;8.866;2023-06-22T00:21:53;23.00;99.90
18291;DHT22;9271;48.590;8.866;2023-06-22T00:24:20;22.90;99.90
18291;DHT22;9271;48.590;8.866;2023-06-22T00:26:47;22.90;99.90
18291;DHT22;9271;48.590;8.866;2023-06-22T00:29:14;22.90;99.90
18291;DHT22;9271;48.590;8.866;2023-06-22T00:31:41;22.80;99.90
18291;DHT22;9271;48.590;8.866;2023-06-22T00:34:08;22.80;99.90
18291;DHT22;9271;48.590;8.866;2023-06-22T00:36:36;22.80;99.90
18291;DHT22;9271;48.590;8.866;2023-06-22T00:39:03;22.80;99.90
18291;DHT22;9271;48.590;8.866;2023-06-22T00:41:30;22.80;99.90
18291;DHT22;9271;48.590;8.866;2023-06-22T00:43:57;22.80;99.90
18291;DHT22;9271;48.590;8.866;2023-06-22T00:46:24;22.80;99.90
18291;DHT22;9271;48.590;8.866;2023-06-22T00:48:51;22.50;99.90
18291;DHT22;9271;48.590;8.866;2023-06-22T00:51:22;22.30;99.90
18291;DHT22;9271;48.590;8.866;2023-06-22T00:53:51;22.40;99.90
18291;DHT22;9271;48.590;8.866;2023-06-22T00:56:18;22.60;99.90
18291;DHT22;9271;48.590;8.866;2023-06-22T00:58:50;22.50;99.90
18291;DHT22;9271;48.590;8.866;2023-06-22T01:01:18;22.30;99.90
18291;DHT22;9271;48.590;8.866;2023-06-22T01:03:48;22.40;99.90
18291;DHT22;9271;48.590;8.866;2023-06-22T01:06:20;22.50;99.90
18291;DHT22;9271;48.590;8.866;2023-06-22T01:09:00;22.50;99.90
18291;DHT22;9271;48.590;8.866;2023-06-22T01:11:35;22.40;99.90
18291;DHT22;9271;48.590;8.866;2023-06-22T01:14:07;22.40;99.90
18291;DHT22;9271;48.590;8.866;2023-06-22T01:16:40;22.40;99.90
18291;DHT22;9271;48.590;8.866;2023-06-22T01:19:20;22.40;99.90
18291;DHT22;9271;48.590;8.866;2023-06-22T01:21:55;22.40;99.90
18291;DHT22;9271;48.590;8.866;2023-06-22T01:24:27;22.40;99.90
18291;DHT22;9271;48.590;8.866;2023-06-22T01:27:00;22.40;99.90
18291;DHT22;9271;48.590;8.866;2023-06-22T01:29:33;22.50;99.90
18291;DHT22;9271;48.590;8.866;2023-06-22T01:32:02;22.50;99.90
18291;DHT22;9271;48.590;8.866;2023-06-22T01:34:31;22.40;99.90
18291;DHT22;9271;48.590;8.866;2023-06-22T01:36:59;22.30;99.90
18291;DHT22;9271;48.590;8.866;2023-06-22T01:39:26;22.00;99.90
18291;DHT22;9271;48.590;8.866;2023-06-22T01:41:53;22.10;99.90
18291;DHT22;9271;48.590;8.866;2023-06-22T01:44:20;22.10;99.90
18291;DHT22;9271;48.590;8.866;2023-06-22T01:46:50;22.00;99.90
18291;DHT22;9271;48.590;8.866;2023-06-22T01:49:17;21.90;99.90
18291;DHT22;9271;48.590;8.866;2023-06-22T01:51:44;21.90;99.90
18291;DHT22;9271;48.590;8.866;2023-06-22T01:54:11;22.00;99.90
18291;DHT22;9271;48.590;8.866;2023-06-22T01:56:37;22.00;99.90
18291;DHT22;9271;48.590;8.866;2023-06-22T01:59:09;21.90;99.90
18291;DHT22;9271;48.590;8.866;2023-06-22T02:01:42;21.90;99.90
18291;DHT22;9271;48.590;8.866;2023-06-22T02:04:13;21.90;99.90
18291;DHT22;9271;48.590;8.866;2023-06-22T02:06:46;22.00;99.90
18291;DHT22;9271;48.590;8.866;2023-06-22T02:09:17;21.90;99.90
18291;DHT22;9271;48.590;8.866;2023-06-22T02:11:46;21.70;99.90
18291;DHT22;9271;48.590;8.866;2023-06-22T02:14:15;21.60;99.90
18291;DHT22;9271;48.590;8.866;2023-06-22T02:16:42;21.60;99.90
18291;DHT22;9271;48.590;8.866;2023-06-22T02:19:09;21.70;99.90
18291;DHT22;9271;48.590;8.866;2023-06-22T02:21:37;21.70;99.90
18291;DHT22;9271;48.590;8.866;2023-06-22T02:24:04;21.70;99.90
18291;DHT22;9271;48.590;8.866;2023-06-22T02:26:31;21.50;99.90
18291;DHT22;9271;48.590;8.866;2023-06-22T02:28:59;21.30;99.90
18291;DHT22;9271;48.590;8.866;2023-06-22T02:31:26;21.50;99.90
18291;DHT22;9271;48.590;8.866;2023-06-22T02:33:56;21.70;99.90
18291;DHT22;9271;48.590;8.866;2023-06-22T02:36:22;21.70;99.90
18291;DHT22;9271;48.590;8.866;2023-06-22T02:38:51;21.60;99.90
18291;DHT22;9271;48.590;8.866;2023-06-22T02:41:18;21.20;99.90
18291;DHT22;9271;48.590;8.866;2023-06-22T02:43:45;21.30;99.90
18291;DHT22;9271;48.590;8.866;2023-06-22T02:46:12;21.60;99.90
18291;DHT22;9271;48.590;8.866;2023-06-22T02:48:39;21.80;99.90
18291;DHT22;9271;48.590;8.866;2023-06-22T02:51:06;21.60;99.90
18291;DHT22;9271;48.590;8.866;2023-06-22T02:53:33;21.40;99.90
18291;DHT22;9271;48.590;8.866;2023-06-22T02:56:01;21.40;99.90
18291;DHT22;9271;48.590;8.866;2023-06-22T02:58:30;21.50;99.90
18291;DHT22;9271;48.590;8.866;2023-06-22T03:01:03;21.70;99.90
18291;DHT22;9271;48.590;8.866;2023-06-22T03:03:30;21.80;99.90
18291;DHT22;9271;48.590;8.866;2023-06-22T03:05:56;21.90;99.90
18291;DHT22;9271;48.590;8.866;2023-06-22T03:08:23;21.80;99.90
18291;DHT22;9271;48.590;8.866;2023-06-22T03:10:50;21.70;99.90
18291;DHT22;9271;48.590;8.866;2023-06-22T03:13:18;21.60;99.90
18291;DHT22;9271;48.590;8.866;2023-06-22T03:15:44;21.70;99.90
18291;DHT22;9271;48.590;8.866;2023-06-22T03:18:11;21.60;99.90
18291;DHT22;9271;48.590;8.866;2023-06-22T03:20:38;21.40;99.90
18291;DHT22;9271;48.590;8.866;2023-06-22T03:23:04;21.30;99.90
18291;DHT22;9271;48.590;8.866;2023-06-22T03:25:31;21.20;99.90
18291;DHT22;9271;48.590;8.866;2023-06-22T03:27:59;21.30;99.90
18291;DHT22;9271;48.590;8.866;2023-06-22T03:30:27;21.40;99.90
18291;DHT22;9271;48.590;8.866;2023-06-22T03:32:53;21.40;99.90
18291;DHT22;9271;48.590;8.866;2023-06-22T03:35:20;21.50;99.90
18291;DHT22;9271;48.590;8.866;2023-06-22T03:37:47;21.50;99.90
18291;DHT22;9271;48.590;8.866;2023-06-22T03:40:13;21.40;99.90
18291;DHT22;9271;48.590;8.866;2023-06-22T03:42:40;21.50;99.90
18291;DHT22;9271;48.590;8.866;2023-06-22T03:45:08;21.60;99.90
18291;DHT22;9271;48.590;8.866;2023-06-22T03:47:36;21.50;99.90
18291;DHT22;9271;48.590;8.866;2023-06-22T03:50:03;21.50;99.90
18291;DHT22;9271;48.590;8.866;2023-06-22T03:52:30;21.50;99.90
18291;DHT22;9271;48.590;8.866;2023-06-22T03:54:56;21.50;99.90
18291;DHT22;9271;48.590;8.866;2023-06-22T03:57:23;21.60;99.90
18291;DHT22;9271;48.590;8.866;2023-06-22T03:59:49;21.70;99.90
18291;DHT22;9271;48.590;8.866;2023-06-22T04:02:16;21.80;99.90
18291;DHT22;9271;48.590;8.866;2023-06-22T04:04:44;21.80;99.90
18291;DHT22;9271;48.590;8.866;2023-06-22T04:07:11;21.80;99.90
18291;DHT22;9271;48.590;8.866;2023-06-22T04:09:37;22.00;99.90
18291;DHT22;9271;48.590;8.866;2023-06-22T04:12:05;22.10;99.90
18291;DHT22;9271;48.590;8.866;2023-06-22T04:14:31;22.10;99.90
18291;DHT22;9271;48.590;8.866;2023-06-22T04:16:58;22.20;99.90
18291;DHT22;9271;48.590;8.866;2023-06-22T04:19:25;22.30;99.90
18291;DHT22;9271;48.590;8.866;2023-06-22T04:21:53;22.40;99.90
18291;DHT22;9271;48.590;8.866;2023-06-22T04:24:20;22.30;99.90
18291;DHT22;9271;48.590;8.866;2023-06-22T04:26:46;22.20;99.90
18291;DHT22;9271;48.590;8.866;2023-06-22T04:29:13;22.20;99.90
18291;DHT22;9271;48.590;8.866;2023-06-22T04:31:40;22.20;99.90
18291;DHT22;9271;48.590;8.866;2023-06-22T04:34:07;22.30;99.90
18291;DHT22;9271;48.590;8.866;2023-06-22T04:36:35;22.40;99.90
18291;DHT22;9271;48.590;8.866;2023-06-22T04:39:05;22.50;99.90
18291;DHT22;9271;48.590;8.866;2023-06-22T04:41:32;22.50;99.90
18291;DHT22;9271;48.590;8.866;2023-06-22T04:44:08;22.60;99.90
18291;DHT22;9271;48.590;8.866;2023-06-22T04:46:35;22.70;99.90
18291;DHT22;9271;48.590;8.866;2023-06-22T04:49:04;22.70;99.90
18291;DHT22;9271;48.590;8.866;2023-06-22T04:51:38;22.90;99.90
18291;DHT22;9271;48.590;8.866;2023-06-22T04:54:06;22.90;99.90
18291;DHT22;9271;48.590;8.866;2023-06-22T04:56:33;23.20;99.90
18291;DHT22;9271;48.590;8.866;2023-06-22T04:59:00;23.30;99.90
18291;DHT22;9271;48.590;8.866;2023-06-22T05:01:28;23.40;99.90
18291;DHT22;9271;48.590;8.866;2023-06-22T05:03:56;23.50;99.90
18291;DHT22;9271;48.590;8.866;2023-06-22T05:06:23;23.50;99.90
18291;DHT22;9271;48.590;8.866;2023-06-22T05:08:52;23.70;99.90
18291;DHT22;9271;48.590;8.866;2023-06-22T05:11:24;23.80;99.90
18291;DHT22;9271;48.590;8.866;2023-06-22T05:13:51;23.90;99.90
18291;DHT22;9271;48.590;8.866;2023-06-22T05:16:17;24.20;99.90
18291;DHT22;9271;48.590;8.866;2023-06-22T05:18:51;24.20;99.90
18291;DHT22;9271;48.590;8.866;2023-06-22T05:21:20;24.40;99.90
18291;DHT22;9271;48.590;8.866;2023-06-22T05:23:46;24.40;99.90
18291;DHT22;9271;48.590;8.866;2023-06-22T05:26:13;24.30;99.90
18291;DHT22;9271;48.590;8.866;2023-06-22T05:28:41;24.40;99.90
18291;DHT22;9271;48.590;8.866;2023-06-22T05:31:11;24.60;99.90
18291;DHT22;9271;48.590;8.866;2023-06-22T05:33:38;24.80;99.90
18291;DHT22;9271;48.590;8.866;2023-06-22T05:36:05;25.00;99.90
18291;DHT22;9271;48.590;8.866;2023-06-22T05:38:32;25.10;99.90
18291;DHT22;9271;48.590;8.866;2023-06-22T05:40:58;25.30;99.90
18291;DHT22;9271;48.590;8.866;2023-06-22T05:43:25;25.40;99.90
18291;DHT22;9271;48.590;8.866;2023-06-22T05:45:53;25.40;99.90
18291;DHT22;9271;48.590;8.866;2023-06-22T05:48:19;25.40;99.90
18291;DHT22;9271;48.590;8.866;2023-06-22T05:50:46;25.40;99.90
18291;DHT22;9271;48.590;8.866;2023-06-22T05:53:13;25.30;99.90
18291;DHT22;9271;48.590;8.866;2023-06-22T05:55:40;25.40;99.90
18291;DHT22;9271;48.590;8.866;2023-06-22T05:58:08;25.60;99.80
18291;DHT22;9271;48.590;8.866;2023-06-22T06:00:34;25.80;99.50
18291;DHT22;9271;48.590;8.866;2023-06-22T06:03:03;25.90;98.80
18291;DHT22;9271;48.590;8.866;2023-06-22T06:05:29;26.10;98.80
18291;DHT22;9271;48.590;8.866;2023-06-22T06:07:56;26.10;98.90
18291;DHT22;9271;48.590;8.866;2023-06-22T06:10:23;26.30;98.70
18291;DHT22;9271;48.590;8.866;2023-06-22T06:12:50;26.30;98.50
18291;DHT22;9271;48.590;8.866;2023-06-22T06:15:17;26.50;98.40
18291;DHT22;9271;48.590;8.866;2023-06-22T06:17:47;26.60;98.10
18291;DHT22;9271;48.590;8.866;2023-06-22T06:20:15;26.70;97.90
18291;DHT22;9271;48.590;8.866;2023-06-22T06:22:42;26.90;97.70
18291;DHT22;9271;48.590;8.866;2023-06-22T06:25:09;27.10;97.50
18291;DHT22;9271;48.590;8.866;2023-06-22T06:27:41;27.30;96.60
18291;DHT22;9271;48.590;8.866;2023-06-22T06:30:09;27.40;96.50
18291;DHT22;9271;48.590;8.866;2023-06-22T06:32:35;27.40;96.50
18291;DHT22;9271;48.590;8.866;2023-06-22T06:35:04;27.20;96.90
18291;DHT22;9271;48.590;8.866;2023-06-22T06:37:35;27.20;97.00
18291;DHT22;9271;48.590;8.866;2023-06-22T06:40:02;27.30;96.60
18291;DHT22;9271;48.590;8.866;2023-06-22T06:42:30;27.40;96.70
18291;DHT22;9271;48.590;8.866;2023-06-22T06:44:57;27.40;96.50
18291;DHT22;9271;48.590;8.866;2023-06-22T06:47:23;27.40;96.20
18291;DHT22;9271;48.590;8.866;2023-06-22T06:49:50;28.00;95.60
18291;DHT22;9271;48.590;8.866;2023-06-22T06:52:17;28.50;95.00
18291;DHT22;9271;48.590;8.866;2023-06-22T06:54:46;28.90;94.40
18291;DHT22;9271;48.590;8.866;2023-06-22T06:57:13;28.80;94.10
18291;DHT22;9271;48.590;8.866;2023-06-22T06:59:40;28.90;94.30
18291;DHT22;9271;48.590;8.866;2023-06-22T07:02:07;28.80;94.10
18291;DHT22;9271;48.590;8.866;2023-06-22T07:04:34;28.90;93.80
18291;DHT22;9271;48.590;8.866;2023-06-22T07:07:01;29.40;93.50
18291;DHT22;9271;48.590;8.866;2023-06-22T07:09:28;29.70;92.40
18291;DHT22;9271;48.590;8.866;2023-06-22T07:11:56;29.90;92.30
18291;DHT22;9271;48.590;8.866;2023-06-22T07:14:23;30.10;91.30
18291;DHT22;9271;48.590;8.866;2023-06-22T07:16:49;29.80;91.00
18291;DHT22;9271;48.590;8.866;2023-06-22T07:19:16;29.90;91.50
18291;DHT22;9271;48.590;8.866;2023-06-22T07:21:42;30.30;90.90
18291;DHT22;9271;48.590;8.866;2023-06-22T07:24:09;30.10;89.60
18291;DHT22;9271;48.590;8.866;2023-06-22T07:26:36;29.50;90.40
18291;DHT22;9271;48.590;8.866;2023-06-22T07:29:04;29.60;90.00
18291;DHT22;9271;48.590;8.866;2023-06-22T07:31:30;29.70;90.30
18291;DHT22;9271;48.590;8.866;2023-06-22T07:33:57;30.10;90.00
18291;DHT22;9271;48.590;8.866;2023-06-22T07:36:24;29.60;88.80
18291;DHT22;9271;48.590;8.866;2023-06-22T07:38:50;29.80;89.10
18291;DHT22;9271;48.590;8.866;2023-06-22T07:41:17;29.70;88.90
18291;DHT22;9271;48.590;8.866;2023-06-22T07:43:45;29.70;89.80
18291;DHT22;9271;48.590;8.866;2023-06-22T07:46:13;30.00;88.70
18291;DHT22;9271;48.590;8.866;2023-06-22T07:48:39;30.10;88.60
18291;DHT22;9271;48.590;8.866;2023-06-22T07:51:07;29.80;90.30
18291;DHT22;9271;48.590;8.866;2023-06-22T07:53:34;29.90;89.90
18291;DHT22;9271;48.590;8.866;2023-06-22T07:56:01;29.90;88.90
18291;DHT22;9271;48.590;8.866;2023-06-22T07:58:32;29.70;88.90
18291;DHT22;9271;48.590;8.866;2023-06-22T08:00:59;30.40;88.80
18291;DHT22;9271;48.590;8.866;2023-06-22T08:03:27;30.30;87.40
18291;DHT22;9271;48.590;8.866;2023-06-22T08:05:53;29.10;90.10
18291;DHT22;9271;48.590;8.866;2023-06-22T08:08:20;29.10;90.60
18291;DHT22;9271;48.590;8.866;2023-06-22T08:10:47;29.60;90.20
18291;DHT22;9271;48.590;8.866;2023-06-22T08:13:14;31.00;87.60
18291;DHT22;9271;48.590;8.866;2023-06-22T08:15:40;32.10;81.80
18291;DHT22;9271;48.590;8.866;2023-06-22T08:18:07;31.50;82.70
18291;DHT22;9271;48.590;8.866;2023-06-22T08:20:35;30.50;86.60
18291;DHT22;9271;48.590;8.866;2023-06-22T08:23:02;30.40;86.70
18291;DHT22;9271;48.590;8.866;2023-06-22T08:25:31;29.90;88.80
18291;DHT22;9271;48.590;8.866;2023-06-22T08:27:58;30.10;86.10
18291;DHT22;9271;48.590;8.866;2023-06-22T08:30:25;30.70;85.40
18291;DHT22;9271;48.590;8.866;2023-06-22T08:32:51;31.10;83.40
18291;DHT22;9271;48.590;8.866;2023-06-22T08:35:19;30.50;84.70
18291;DHT22;9271;48.590;8.866;2023-06-22T08:37:47;30.60;87.00
18291;DHT22;9271;48.590;8.866;2023-06-22T08:40:18;31.60;83.60
18291;DHT22;9271;48.590;8.866;2023-06-22T08:42:45;32.20;80.50
18291;DHT22;9271;48.590;8.866;2023-06-22T08:45:13;32.90;81.10
18291;DHT22;9271;48.590;8.866;2023-06-22T08:47:40;34.20;73.70
18291;DHT22;9271;48.590;8.866;2023-06-22T08:50:08;34.20;74.10
18291;DHT22;9271;48.590;8.866;2023-06-22T08:52:35;33.80;73.40
18291;DHT22;9271;48.590;8.866;2023-06-22T08:55:05;32.80;76.20
18291;DHT22;9271;48.590;8.866;2023-06-22T08:57:32;32.10;79.30
18291;DHT22;9271;48.590;8.866;2023-06-22T08:59:59;34.30;77.00
18291;DHT22;9271;48.590;8.866;2023-06-22T09:02:26;36.50;67.70
18291;DHT22;9271;48.590;8.866;2023-06-22T09:04:56;36.10;67.80
18291;DHT22;9271;48.590;8.866;2023-06-22T09:07:23;37.00;64.20
18291;DHT22;9271;48.590;8.866;2023-06-22T09:09:50;38.00;62.10
18291;DHT22;9271;48.590;8.866;2023-06-22T09:12:20;38.20;60.40
18291;DHT22;9271;48.590;8.866;2023-06-22T09:14:51;38.40;57.80
18291;DHT22;9271;48.590;8.866;2023-06-22T09:17:17;39.40;57.60
18291;DHT22;9271;48.590;8.866;2023-06-22T09:19:44;39.40;55.30
18291;DHT22;9271;48.590;8.866;2023-06-22T09:22:11;39.10;55.10
18291;DHT22;9271;48.590;8.866;2023-06-22T09:24:37;39.30;54.40
18291;DHT22;9271;48.590;8.866;2023-06-22T09:27:04;40.80;53.20
18291;DHT22;9271;48.590;8.866;2023-06-22T09:29:32;40.40;51.70
18291;DHT22;9271;48.590;8.866;2023-06-22T09:31:59;40.70;49.60
18291;DHT22;9271;48.590;8.866;2023-06-22T09:34:26;41.10;49.00
18291;DHT22;9271;48.590;8.866;2023-06-22T09:36:52;40.80;48.90
18291;DHT22;9271;48.590;8.866;2023-06-22T09:39:20;39.80;52.10
18291;DHT22;9271;48.590;8.866;2023-06-22T09:41:47;40.00;49.50
18291;DHT22;9271;48.590;8.866;2023-06-22T09:44:13;41.00;47.70
18291;DHT22;9271;48.590;8.866;2023-06-22T09:46:41;41.40;47.90
18291;DHT22;9271;48.590;8.866;2023-06-22T09:49:08;40.70;47.00
18291;DHT22;9271;48.590;8.866;2023-06-22T09:51:34;38.90;49.40
18291;DHT22;9271;48.590;8.866;2023-06-22T09:54:01;37.70;51.40
18291;DHT22;9271;48.590;8.866;2023-06-22T09:56:28;37.40;52.70
18291;DHT22;9271;48.590;8.866;2023-06-22T09:58:55;37.80;51.60
18291;DHT22;9271;48.590;8.866;2023-06-22T10:01:22;36.80;53.50
18291;DHT22;9271;48.590;8.866;2023-06-22T10:03:52;36.90;54.00
18291;DHT22;9271;48.590;8.866;2023-06-22T10:06:21;36.60;53.60
18291;DHT22;9271;48.590;8.866;2023-06-22T10:08:48;35.50;57.10
18291;DHT22;9271;48.590;8.866;2023-06-22T10:11:16;36.30;55.70
18291;DHT22;9271;48.590;8.866;2023-06-22T10:13:43;37.40;53.50
18291;DHT22;9271;48.590;8.866;2023-06-22T10:16:09;37.90;52.60
18291;DHT22;9271;48.590;8.866;2023-06-22T10:18:36;39.10;50.30
18291;DHT22;9271;48.590;8.866;2023-06-22T10:21:04;40.50;49.00
18291;DHT22;9271;48.590;8.866;2023-06-22T10:23:31;42.20;46.50
18291;DHT22;9271;48.590;8.866;2023-06-22T10:25:57;43.70;44.30
18291;DHT22;9271;48.590;8.866;2023-06-22T10:28:24;43.20;43.90
18291;DHT22;9271;48.590;8.866;2023-06-22T10:30:50;41.50;45.20
18291;DHT22;9271;48.590;8.866;2023-06-22T10:33:17;40.90;46.60
18291;DHT22;9271;48.590;8.866;2023-06-22T10:35:44;41.20;46.00
18291;DHT22;9271;48.590;8.866;2023-06-22T10:38:12;40.00;47.20
18291;DHT22;9271;48.590;8.866;2023-06-22T10:40:38;39.50;49.10
18291;DHT22;9271;48.590;8.866;2023-06-22T10:43:05;39.20;47.80
18291;DHT22;9271;48.590;8.866;2023-06-22T10:45:32;38.30;48.50
18291;DHT22;9271;48.590;8.866;2023-06-22T10:47:59;38.50;49.40
18291;DHT22;9271;48.590;8.866;2023-06-22T10:50:25;37.20;51.30
18291;DHT22;9271;48.590;8.866;2023-06-22T10:52:53;36.90;52.10
18291;DHT22;9271;48.590;8.866;2023-06-22T10:55:21;35.50;54.40
18291;DHT22;9271;48.590;8.866;2023-06-22T10:57:48;35.70;55.40
18291;DHT22;9271;48.590;8.866;2023-06-22T11:00:16;37.00;53.90
18291;DHT22;9271;48.590;8.866;2023-06-22T11:02:43;38.00;51.50
18291;DHT22;9271;48.590;8.866;2023-06-22T11:05:09;38.10;51.80
18291;DHT22;9271;48.590;8.866;2023-06-22T11:07:37;37.10;52.70
18291;DHT22;9271;48.590;8.866;2023-06-22T11:10:04;36.50;54.50
18291;DHT22;9271;48.590;8.866;2023-06-22T11:12:32;36.80;53.70
18291;DHT22;9271;48.590;8.866;2023-06-22T11:14:59;37.10;52.90
18291;DHT22;9271;48.590;8.866;2023-06-22T11:17:26;36.70;54.00
18291;DHT22;9271;48.590;8.866;2023-06-22T11:19:52;37.00;53.10
18291;DHT22;9271;48.590;8.866;2023-06-22T11:22:19;37.00;53.20
18291;DHT22;9271;48.590;8.866;2023-06-22T11:24:46;36.30;54.80
18291;DHT22;9271;48.590;8.866;2023-06-22T11:27:12;37.60;53.30
18291;DHT22;9271;48.590;8.866;2023-06-22T11:29:40;38.10;52.30
18291;DHT22;9271;48.590;8.866;2023-06-22T11:32:07;37.80;54.10
18291;DHT22;9271;48.590;8.866;2023-06-22T11:34:34;38.50;53.30
18291;DHT22;9271;48.590;8.866;2023-06-22T11:37:01;38.10;51.90
18291;DHT22;9271;48.590;8.866;2023-06-22T11:39:27;36.40;55.00
18291;DHT22;9271;48.590;8.866;2023-06-22T11:41:54;36.30;56.30
18291;DHT22;9271;48.590;8.866;2023-06-22T11:44:20;35.80;56.10
18291;DHT22;9271;48.590;8.866;2023-06-22T11:46:48;35.10;57.60
18291;DHT22;9271;48.590;8.866;2023-06-22T11:49:15;34.90;58.50
18291;DHT22;9271;48.590;8.866;2023-06-22T11:51:42;34.20;59.50
18291;DHT22;9271;48.590;8.866;2023-06-22T11:54:08;33.90;60.60
18291;DHT22;9271;48.590;8.866;2023-06-22T11:56:35;33.40;63.00
18291;DHT22;9271;48.590;8.866;2023-06-22T11:59:01;33.40;63.00
18291;DHT22;9271;48.590;8.866;2023-06-22T12:01:28;33.50;62.80
18291;DHT22;9271;48.590;8.866;2023-06-22T12:03:56;34.30;62.60
18291;DHT22;9271;48.590;8.866;2023-06-22T12:06:23;34.50;59.20
18291;DHT22;9271;48.590;8.866;2023-06-22T12:08:50;34.30;59.20
18291;DHT22;9271;48.590;8.866;2023-06-22T12:11:16;34.20;59.50
18291;DHT22;9271;48.590;8.866;2023-06-22T12:13:43;33.90;60.60
18291;DHT22;9271;48.590;8.866;2023-06-22T12:16:10;33.20;62.60
18291;DHT22;9271;48.590;8.866;2023-06-22T12:18:37;32.40;66.70
18291;DHT22;9271;48.590;8.866;2023-06-22T12:21:05;31.70;67.50
18291;DHT22;9271;48.590;8.866;2023-06-22T12:23:32;31.40;69.10
18291;DHT22;9271;48.590;8.866;2023-06-22T12:25:58;32.20;68.80
18291;DHT22;9271;48.590;8.866;2023-06-22T12:28:27;33.10;65.10
18291;DHT22;9271;48.590;8.866;2023-06-22T12:30:53;33.60;62.90
18291;DHT22;9271;48.590;8.866;2023-06-22T12:33:20;33.90;62.90
18291;DHT22;9271;48.590;8.866;2023-06-22T12:35:46;34.40;61.00
18291;DHT22;9271;48.590;8.866;2023-06-22T12:38:15;34.00;61.60
18291;DHT22;9271;48.590;8.866;2023-06-22T12:40:42;33.70;63.20
18291;DHT22;9271;48.590;8.866;2023-06-22T12:43:09;33.60;64.80
18291;DHT22;9271;48.590;8.866;2023-06-22T12:45:35;33.20;66.50
18291;DHT22;9271;48.590;8.866;2023-06-22T12:48:02;33.20;66.40
18291;DHT22;9271;48.590;8.866;2023-06-22T12:50:29;33.20;66.30
18291;DHT22;9271;48.590;8.866;2023-06-22T12:52:55;33.20;66.50
18291;DHT22;9271;48.590;8.866;2023-06-22T12:55:23;33.10;66.00
18291;DHT22;9271;48.590;8.866;2023-06-22T12:57:50;33.00;66.60
18291;DHT22;9271;48.590;8.866;2023-06-22T13:00:17;33.30;66.60
18291;DHT22;9271;48.590;8.866;2023-06-22T13:02:44;33.40;65.60
18291;DHT22;9271;48.590;8.866;2023-06-22T13:05:11;33.80;65.50
18291;DHT22;9271;48.590;8.866;2023-06-22T13:07:37;34.00;63.20
18291;DHT22;9271;48.590;8.866;2023-06-22T13:10:05;34.50;62.00
18291;DHT22;9271;48.590;8.866;2023-06-22T13:12:33;34.80;61.90
18291;DHT22;9271;48.590;8.866;2023-06-22T13:14:59;35.10;66.70
18291;DHT22;9271;48.590;8.866;2023-06-22T13:17:27;35.30;62.80
18291;DHT22;9271;48.590;8.866;2023-06-22T13:19:54;35.50;64.10
18291;DHT22;9271;48.590;8.866;2023-06-22T13:22:28;35.70;60.20
18291;DHT22;9271;48.590;8.866;2023-06-22T13:24:55;35.90;61.00
18291;DHT22;9271;48.590;8.866;2023-06-22T13:27:22;35.60;59.30
18291;DHT22;9271;48.590;8.866;2023-06-22T13:29:50;35.20;60.80
18291;DHT22;9271;48.590;8.866;2023-06-22T13:32:17;34.50;62.90
18291;DHT22;9271;48.590;8.866;2023-06-22T13:34:44;34.80;64.40
18291;DHT22;9271;48.590;8.866;2023-06-22T13:37:10;34.80;64.20
18291;DHT22;9271;48.590;8.866;2023-06-22T13:39:37;34.60;64.40
18291;DHT22;9271;48.590;8.866;2023-06-22T13:42:04;35.20;62.80
18291;DHT22;9271;48.590;8.866;2023-06-22T13:44:31;35.80;61.60
18291;DHT22;9271;48.590;8.866;2023-06-22T13:46:59;36.30;60.00
18291;DHT22;9271;48.590;8.866;2023-06-22T13:49:26;36.80;60.90
18291;DHT22;9271;48.590;8.866;2023-06-22T13:51:53;37.70;60.60
18291;DHT22;9271;48.590;8.866;2023-06-22T13:54:19;38.20;57.50
18291;DHT22;9271;48.590;8.866;2023-06-22T13:56:46;39.00;56.60
18291;DHT22;9271;48.590;8.866;2023-06-22T13:59:13;39.90;54.30
18291;DHT22;9271;48.590;8.866;2023-06-22T14:01:40;40.50;54.50
18291;DHT22;9271;48.590;8.866;2023-06-22T14:04:08;40.70;51.40
18291;DHT22;9271;48.590;8.866;2023-06-22T14:06:35;39.30;51.60
18291;DHT22;9271;48.590;8.866;2023-06-22T14:09:01;37.20;56.30
18291;DHT22;9271;48.590;8.866;2023-06-22T14:11:28;36.10;54.10
18291;DHT22;9271;48.590;8.866;2023-06-22T14:13:55;35.60;51.00
18291;DHT22;9271;48.590;8.866;2023-06-22T14:16:21;35.00;49.20
18291;DHT22;9271;48.590;8.866;2023-06-22T14:18:48;34.60;46.60
18291;DHT22;9271;48.590;8.866;2023-06-22T14:21:16;33.60;48.90
18291;DHT22;9271;48.590;8.866;2023-06-22T14:23:44;33.80;48.10
18291;DHT22;9271;48.590;8.866;2023-06-22T14:26:14;34.20;47.40
18291;DHT22;9271;48.590;8.866;2023-06-22T14:28:42;34.90;45.70
18291;DHT22;9271;48.590;8.866;2023-06-22T14:31:13;35.40;44.40
18291;DHT22;9271;48.590;8.866;2023-06-22T14:33:40;35.20;45.00
18291;DHT22;9271;48.590;8.866;2023-06-22T14:36:07;34.60;45.10
18291;DHT22;9271;48.590;8.866;2023-06-22T14:38:35;34.70;45.40
18291;DHT22;9271;48.590;8.866;2023-06-22T14:41:01;34.60;45.90
18291;DHT22;9271;48.590;8.866;2023-06-22T14:43:28;34.50;45.00
18291;DHT22;9271;48.590;8.866;2023-06-22T14:45:55;34.60;44.90
18291;DHT22;9271;48.590;8.866;2023-06-22T14:48:21;34.80;45.30
18291;DHT22;9271;48.590;8.866;2023-06-22T14:50:48;34.40;44.20
18291;DHT22;9271;48.590;8.866;2023-06-22T14:53:15;33.80;45.10
18291;DHT22;9271;48.590;8.866;2023-06-22T14:55:43;33.30;45.80
18291;DHT22;9271;48.590;8.866;2023-06-22T14:58:10;33.10;45.70
18291;DHT22;9271;48.590;8.866;2023-06-22T15:00:37;33.20;45.80
18291;DHT22;9271;48.590;8.866;2023-06-22T15:03:04;33.40;46.00
18291;DHT22;9271;48.590;8.866;2023-06-22T15:05:33;33.40;46.30
18291;DHT22;9271;48.590;8.866;2023-06-22T15:07:59;33.60;45.50
18291;DHT22;9271;48.590;8.866;2023-06-22T15:10:26;33.30;46.10
18291;DHT22;9271;48.590;8.866;2023-06-22T15:12:54;33.40;45.90
18291;DHT22;9271;48.590;8.866;2023-06-22T15:15:20;32.80;46.60
18291;DHT22;9271;48.590;8.866;2023-06-22T15:17:47;32.40;47.80
18291;DHT22;9271;48.590;8.866;2023-06-22T15:20:14;32.40;48.80
18291;DHT22;9271;48.590;8.866;2023-06-22T15:22:40;32.80;48.30
18291;DHT22;9271;48.590;8.866;2023-06-22T15:25:07;32.60;48.60
18291;DHT22;9271;48.590;8.866;2023-06-22T15:27:34;32.40;49.10
18291;DHT22;9271;48.590;8.866;2023-06-22T15:30:03;31.70;49.40
18291;DHT22;9271;48.590;8.866;2023-06-22T15:32:30;31.70;50.20
18291;DHT22;9271;48.590;8.866;2023-06-22T15:34:57;31.60;50.00
18291;DHT22;9271;48.590;8.866;2023-06-22T15:37:23;31.40;50.90
18291;DHT22;9271;48.590;8.866;2023-06-22T15:39:50;31.20;51.20
18291;DHT22;9271;48.590;8.866;2023-06-22T15:42:17;31.10;51.60
18291;DHT22;9271;48.590;8.866;2023-06-22T15:44:43;31.30;51.70
18291;DHT22;9271;48.590;8.866;2023-06-22T15:47:11;31.40;51.60